createdAt,value
2019-03-31T00:02:06.731Z,5.10
2019-03-31T00:04:38.561Z,5.20
2019-03-31T00:07:09.270Z,5.20
2019-03-31T00:09:39.928Z,5.20
2019-03-31T00:12:15.469Z,5.20
2019-03-31T00:14:46.102Z,5.10
2019-03-31T00:17:16.964Z,5.10
2019-03-31T00:19:48.650Z,5.10
2019-03-31T00:22:19.320Z,5.10
2019-03-31T00:24:53.450Z,5.00
2019-03-31T00:27:25.091Z,5.00
2019-03-31T00:29:56.729Z,5.00
2019-03-31T00:32:28.627Z,5.00
2019-03-31T00:35:02.653Z,4.90
2019-03-31T00:37:36.269Z,4.90
2019-03-31T00:40:09.351Z,4.90
2019-03-31T00:42:40.031Z,4.90
2019-03-31T00:45:14.355Z,4.80
2019-03-31T00:47:44.975Z,4.80
2019-03-31T00:50:15.683Z,4.80
2019-03-31T00:52:46.363Z,4.80
2019-03-31T00:55:21.833Z,4.90
2019-03-31T00:57:52.444Z,4.80
2019-03-31T01:00:41.513Z,4.80
2019-03-31T01:03:16.509Z,4.80
2019-03-31T01:05:48.260Z,4.80
2019-03-31T01:08:20.198Z,4.80
2019-03-31T01:10:54.628Z,4.80
2019-03-31T01:13:25.364Z,4.80
2019-03-31T01:15:59.134Z,4.90
2019-03-31T01:18:31.077Z,4.80
2019-03-31T01:21:01.771Z,4.80
2019-03-31T01:23:32.396Z,4.80
2019-03-31T01:26:03.040Z,4.90
2019-03-31T01:28:35.522Z,4.80
2019-03-31T01:31:06.690Z,4.80
2019-03-31T01:33:38.590Z,4.70
2019-03-31T01:36:09.630Z,4.70
2019-03-31T01:38:40.270Z,4.60
2019-03-31T01:41:11.437Z,4.70
2019-03-31T01:43:42.148Z,4.60
2019-03-31T01:46:14.573Z,4.50
2019-03-31T01:48:45.298Z,4.50
2019-03-31T01:51:20.779Z,4.40
2019-03-31T01:53:52.702Z,4.50
2019-03-31T01:56:23.781Z,4.50
2019-03-31T01:58:54.413Z,4.50
2019-03-31T02:01:27.050Z,4.50
2019-03-31T02:03:57.654Z,4.50
2019-03-31T02:06:29.860Z,4.50
2019-03-31T02:09:00.519Z,4.40
2019-03-31T02:11:31.223Z,4.40
2019-03-31T02:14:04.713Z,4.30
2019-03-31T02:16:36.577Z,4.30
2019-03-31T02:19:07.107Z,4.30
2019-03-31T02:21:39.161Z,4.30
2019-03-31T02:24:11.785Z,4.30
2019-03-31T02:26:42.419Z,4.30
2019-03-31T02:29:12.989Z,4.30
2019-03-31T02:31:45.662Z,4.30
2019-03-31T02:34:20.624Z,4.20
2019-03-31T02:36:53.219Z,4.20
2019-03-31T02:39:25.134Z,4.20
2019-03-31T02:41:57.551Z,4.20
2019-03-31T02:44:32.347Z,4.30
2019-03-31T02:47:02.963Z,4.30
2019-03-31T02:49:33.680Z,4.40
2019-03-31T02:52:04.323Z,4.50
2019-03-31T02:54:36.964Z,4.40
2019-03-31T02:57:07.985Z,4.40
2019-03-31T02:59:39.070Z,4.30
2019-03-31T03:02:12.134Z,4.30
2019-03-31T03:04:44.980Z,4.20
2019-03-31T03:07:19.495Z,4.20
2019-03-31T03:09:51.698Z,4.10
2019-03-31T03:12:27.087Z,4.10
2019-03-31T03:14:59.777Z,4.00
2019-03-31T03:17:31.622Z,3.90
2019-03-31T03:20:04.032Z,3.90
2019-03-31T03:22:36.314Z,3.90
2019-03-31T03:25:07.023Z,3.90
2019-03-31T03:27:40.112Z,4.00
2019-03-31T03:30:10.786Z,4.00
2019-03-31T03:33:10.801Z,3.90
2019-03-31T03:35:15.265Z,3.90
2019-03-31T03:37:50.157Z,4.00
2019-03-31T03:40:23.846Z,4.00
2019-03-31T03:42:54.480Z,4.00
2019-03-31T03:45:25.123Z,4.00
2019-03-31T03:47:55.757Z,3.90
2019-03-31T03:50:27.686Z,3.90
2019-03-31T03:52:59.556Z,3.80
2019-03-31T03:55:30.121Z,3.80
2019-03-31T03:58:02.918Z,3.80
2019-03-31T04:00:35.710Z,3.80
2019-03-31T04:03:06.424Z,3.80
2019-03-31T04:05:38.412Z,3.80
2019-03-31T04:08:10.286Z,3.80
2019-03-31T04:11:15.181Z,3.80
2019-03-31T04:13:45.058Z,3.80
2019-03-31T04:16:17.615Z,3.70
2019-03-31T04:18:48.281Z,3.80
2019-03-31T04:21:22.597Z,3.70
2019-03-31T04:23:58.013Z,3.70
2019-03-31T04:26:28.659Z,3.70
2019-03-31T04:29:01.179Z,3.70
2019-03-31T04:31:31.905Z,3.60
2019-03-31T04:34:02.454Z,3.50
2019-03-31T04:36:35.557Z,3.50
2019-03-31T04:39:07.162Z,3.40
2019-03-31T04:41:37.708Z,3.50
2019-03-31T04:44:10.676Z,3.40
2019-03-31T04:46:41.324Z,3.40
2019-03-31T04:49:15.458Z,3.40
2019-03-31T04:51:51.604Z,3.40
2019-03-31T04:54:22.583Z,3.40
2019-03-31T04:56:54.506Z,3.30
2019-03-31T04:59:26.321Z,3.40
2019-03-31T05:01:58.159Z,3.50
2019-03-31T05:04:31.485Z,3.50
2019-03-31T05:07:03.799Z,3.60
2019-03-31T05:09:37.354Z,3.70
2019-03-31T05:12:08.691Z,3.80
2019-03-31T05:14:41.932Z,3.80
2019-03-31T05:17:11.736Z,3.80
2019-03-31T05:19:42.363Z,3.90
2019-03-31T05:22:12.979Z,3.90
2019-03-31T05:24:43.511Z,4.00
2019-03-31T05:27:14.130Z,4.20
2019-03-31T05:29:44.821Z,4.40
2019-03-31T05:32:15.471Z,4.50
2019-03-31T05:34:46.019Z,4.90
2019-03-31T05:37:16.640Z,5.90
2019-03-31T05:39:47.209Z,7.80
2019-03-31T05:42:17.839Z,9.80
2019-03-31T05:44:50.982Z,11.40
2019-03-31T05:47:22.084Z,13.00
2019-03-31T05:49:55.578Z,14.40
2019-03-31T05:52:26.208Z,15.50
2019-03-31T05:54:59.800Z,16.00
2019-03-31T05:57:30.349Z,15.80
2019-03-31T06:00:00.908Z,15.30
2019-03-31T06:02:31.655Z,14.70
2019-03-31T06:05:02.289Z,14.70
2019-03-31T06:07:34.297Z,14.50
2019-03-31T06:10:06.026Z,14.40
2019-03-31T06:12:36.662Z,14.70
2019-03-31T06:15:09.312Z,14.80
2019-03-31T06:17:39.966Z,15.50
2019-03-31T06:20:13.137Z,15.90
2019-03-31T06:22:43.792Z,16.60
2019-03-31T06:25:18.949Z,17.30
2019-03-31T06:27:50.885Z,17.90
2019-03-31T06:30:21.465Z,18.50
2019-03-31T06:32:55.481Z,19.20
2019-03-31T06:35:25.646Z,19.80
2019-03-31T06:37:58.104Z,20.30
2019-03-31T06:40:28.730Z,20.80
2019-03-31T06:43:01.441Z,21.80
2019-03-31T06:45:32.099Z,22.20
2019-03-31T06:48:02.816Z,22.30
2019-03-31T06:50:33.444Z,22.30
2019-03-31T06:53:05.685Z,22.50
2019-03-31T06:55:40.502Z,22.80
2019-03-31T06:58:10.420Z,23.10
2019-03-31T07:00:42.239Z,24.20
2019-03-31T07:03:13.904Z,24.90
2019-03-31T07:05:44.512Z,25.00
2019-03-31T07:08:15.142Z,25.10
2019-03-31T07:10:45.823Z,25.60
2019-03-31T07:13:16.567Z,25.70
2019-03-31T07:15:47.195Z,26.10
2019-03-31T07:18:17.848Z,26.20
2019-03-31T07:20:49.504Z,26.80
2019-03-31T07:23:20.160Z,26.40
2019-03-31T07:25:52.301Z,26.20
2019-03-31T07:28:22.922Z,26.30
2019-03-31T07:30:54.779Z,27.00
2019-03-31T07:33:25.399Z,27.40
2019-03-31T07:35:56.074Z,27.80
2019-03-31T07:38:38.349Z,28.60
2019-03-31T07:41:12.090Z,28.70
2019-03-31T07:43:31.310Z,29.20
2019-03-31T07:46:01.967Z,29.40
2019-03-31T07:48:32.603Z,29.20
2019-03-31T07:51:03.279Z,29.30
2019-03-31T07:53:34.003Z,29.50
2019-03-31T07:56:04.567Z,30.00
2019-03-31T07:58:35.149Z,30.60
2019-03-31T08:01:05.829Z,30.40
2019-03-31T08:03:36.525Z,30.70
2019-03-31T08:06:07.144Z,30.00
2019-03-31T08:08:37.853Z,30.90
2019-03-31T08:11:08.404Z,31.90
2019-03-31T08:13:38.990Z,31.60
2019-03-31T08:16:09.628Z,31.50
2019-03-31T08:18:40.168Z,31.50
2019-03-31T08:21:10.814Z,32.10
2019-03-31T08:23:41.571Z,32.50
2019-03-31T08:26:12.200Z,32.40
2019-03-31T08:28:42.846Z,32.50
2019-03-31T08:31:13.475Z,33.20
2019-03-31T08:33:44.104Z,33.80
2019-03-31T08:36:14.746Z,33.00
2019-03-31T08:38:45.390Z,33.80
2019-03-31T08:41:15.960Z,34.00
2019-03-31T08:43:46.651Z,35.00
2019-03-31T08:46:22.926Z,35.40
2019-03-31T08:48:55.242Z,35.70
2019-03-31T08:51:26.887Z,35.40
2019-03-31T08:53:59.649Z,36.00
2019-03-31T08:56:33.996Z,35.90
2019-03-31T08:59:06.335Z,35.80
2019-03-31T09:01:36.976Z,36.00
2019-03-31T09:04:07.591Z,36.20
2019-03-31T09:06:38.278Z,34.60
2019-03-31T09:09:11.886Z,34.70
2019-03-31T09:11:45.299Z,34.20
2019-03-31T09:14:17.048Z,35.10
2019-03-31T09:16:53.212Z,36.00
2019-03-31T09:19:25.684Z,36.50
2019-03-31T09:21:56.336Z,36.60
2019-03-31T09:24:29.615Z,35.80
2019-03-31T09:27:00.282Z,35.40
2019-03-31T09:29:32.253Z,34.40
2019-03-31T09:32:07.326Z,34.40
2019-03-31T09:34:39.752Z,33.20
2019-03-31T09:37:10.309Z,34.10
2019-03-31T09:39:40.951Z,34.50
2019-03-31T09:42:13.296Z,35.60
2019-03-31T09:44:44.017Z,34.60
2019-03-31T09:47:14.902Z,35.10
2019-03-31T09:49:45.621Z,33.60
2019-03-31T09:52:16.281Z,34.30
2019-03-31T09:54:46.932Z,34.80
2019-03-31T09:57:36.362Z,34.80
2019-03-31T10:00:10.093Z,33.20
2019-03-31T10:02:42.830Z,31.10
2019-03-31T10:05:18.112Z,29.30
2019-03-31T10:07:51.203Z,30.70
2019-03-31T10:10:32.053Z,31.10
2019-03-31T10:13:04.529Z,31.80
2019-03-31T10:15:35.131Z,32.10
2019-03-31T10:18:05.843Z,30.50
2019-03-31T10:20:41.664Z,31.00
2019-03-31T10:23:12.316Z,31.70
2019-03-31T10:25:42.963Z,31.80
2019-03-31T10:28:18.471Z,29.90
2019-03-31T10:30:49.152Z,30.00
2019-03-31T10:33:21.045Z,29.10
2019-03-31T10:35:53.340Z,28.00
2019-03-31T10:38:23.929Z,28.90
2019-03-31T10:40:55.518Z,27.20
2019-03-31T10:43:27.863Z,26.50
2019-03-31T10:45:59.740Z,28.00
2019-03-31T10:48:30.374Z,30.30
2019-03-31T10:51:01.000Z,31.20
2019-03-31T10:53:31.566Z,30.40
2019-03-31T10:56:03.214Z,29.60
2019-03-31T10:58:33.917Z,28.60
2019-03-31T11:01:08.013Z,27.50
2019-03-31T11:03:42.456Z,25.80
2019-03-31T11:06:13.037Z,23.20
2019-03-31T11:08:43.871Z,22.50
2019-03-31T11:11:14.643Z,21.60
2019-03-31T11:13:45.276Z,21.20
2019-03-31T11:16:16.926Z,20.90
2019-03-31T11:18:47.551Z,20.70
2019-03-31T11:21:26.276Z,20.20
2019-03-31T11:23:58.163Z,20.10
2019-03-31T11:26:28.803Z,19.70
2019-03-31T11:28:59.437Z,19.60
2019-03-31T11:31:30.177Z,19.30
2019-03-31T11:34:00.815Z,18.50
2019-03-31T11:36:31.488Z,18.40
2019-03-31T11:39:02.153Z,18.20
2019-03-31T11:41:32.775Z,18.30
2019-03-31T11:44:03.528Z,18.30
2019-03-31T11:46:34.239Z,18.20
2019-03-31T11:49:04.916Z,18.00
2019-03-31T11:51:35.615Z,18.20
2019-03-31T11:54:06.387Z,18.40
2019-03-31T11:56:37.305Z,18.10
2019-03-31T11:59:08.030Z,17.90
2019-03-31T12:01:38.675Z,18.20
2019-03-31T12:04:09.345Z,18.30
2019-03-31T12:06:41.121Z,18.10
2019-03-31T12:09:11.771Z,18.30
2019-03-31T12:11:45.523Z,18.40
2019-03-31T12:14:14.799Z,18.40
2019-03-31T12:16:45.469Z,18.00
2019-03-31T12:19:16.121Z,17.80
2019-03-31T12:21:46.771Z,17.80
2019-03-31T12:24:17.385Z,18.10
2019-03-31T12:26:48.021Z,17.90
2019-03-31T12:29:18.665Z,18.10
2019-03-31T12:31:49.312Z,18.00
2019-03-31T12:34:19.960Z,17.70
2019-03-31T12:36:50.668Z,17.50
2019-03-31T12:39:21.331Z,17.20
2019-03-31T12:41:51.994Z,17.40
2019-03-31T12:44:25.083Z,17.60
2019-03-31T12:46:56.656Z,17.80
2019-03-31T12:49:27.427Z,17.60
2019-03-31T12:51:58.037Z,17.60
2019-03-31T12:54:28.612Z,17.40
2019-03-31T12:56:59.251Z,17.30
2019-03-31T12:59:29.888Z,17.40
2019-03-31T13:02:00.549Z,17.50
2019-03-31T13:04:31.184Z,17.70
2019-03-31T13:07:01.816Z,17.70
2019-03-31T13:09:33.909Z,17.50
2019-03-31T13:12:05.796Z,17.50
2019-03-31T13:14:37.494Z,17.40
2019-03-31T13:17:11.301Z,17.40
2019-03-31T13:19:41.951Z,17.30
2019-03-31T13:22:14.972Z,17.10
2019-03-31T13:24:45.609Z,17.10
2019-03-31T13:27:16.247Z,17.30
2019-03-31T13:29:49.827Z,17.20
2019-03-31T13:32:23.555Z,17.20
2019-03-31T13:34:55.479Z,17.20
2019-03-31T13:37:26.117Z,17.20
2019-03-31T13:39:57.796Z,17.20
2019-03-31T13:42:28.430Z,17.50
2019-03-31T13:45:00.684Z,17.70
2019-03-31T13:47:34.384Z,17.50
2019-03-31T13:50:06.582Z,17.50
2019-03-31T13:52:37.219Z,17.40
2019-03-31T13:55:09.511Z,17.20
2019-03-31T13:58:02.926Z,16.90
2019-03-31T14:00:37.397Z,17.00
2019-03-31T14:03:10.044Z,17.00
2019-03-31T14:05:40.682Z,17.00
2019-03-31T14:08:24.676Z,17.10
2019-03-31T14:10:46.732Z,17.00
2019-03-31T14:13:17.274Z,17.10
2019-03-31T14:15:48.552Z,17.20
2019-03-31T14:18:19.112Z,17.00
2019-03-31T14:20:49.664Z,17.10
2019-03-31T14:23:20.268Z,17.10
2019-03-31T14:25:52.653Z,17.00
2019-03-31T14:28:23.277Z,16.90
2019-03-31T14:30:54.201Z,16.50
2019-03-31T14:33:25.206Z,16.60
2019-03-31T14:35:55.787Z,16.70
2019-03-31T14:38:39.480Z,16.70
2019-03-31T14:40:58.674Z,16.80
2019-03-31T14:43:30.218Z,16.80
2019-03-31T14:46:07.652Z,16.80
2019-03-31T14:48:39.398Z,16.90
2019-03-31T14:51:09.968Z,16.70
2019-03-31T14:53:40.688Z,16.80
2019-03-31T14:56:11.226Z,16.80
2019-03-31T14:58:41.843Z,16.80
2019-03-31T15:01:14.453Z,16.90
2019-03-31T15:03:47.115Z,16.90
2019-03-31T15:06:17.748Z,16.90
2019-03-31T15:08:54.435Z,17.00
2019-03-31T15:11:23.046Z,16.70
2019-03-31T15:13:58.447Z,16.70
2019-03-31T15:16:28.354Z,16.60
2019-03-31T15:19:00.697Z,16.70
2019-03-31T15:21:31.385Z,16.60
2019-03-31T15:24:01.947Z,16.60
2019-03-31T15:26:32.507Z,16.50
2019-03-31T15:29:03.310Z,16.50
2019-03-31T15:31:33.979Z,16.40
2019-03-31T15:34:04.693Z,16.40
2019-03-31T15:36:36.920Z,16.50
2019-03-31T15:39:09.504Z,16.50
2019-03-31T15:41:41.681Z,16.40
2019-03-31T15:44:15.332Z,16.50
2019-03-31T15:46:45.919Z,16.50
2019-03-31T15:49:16.477Z,16.50
2019-03-31T15:51:47.093Z,16.50
2019-03-31T15:54:17.699Z,16.50
2019-03-31T15:56:48.490Z,16.50
2019-03-31T15:59:19.115Z,16.50
2019-03-31T16:01:49.700Z,16.50
2019-03-31T16:04:20.312Z,16.50
2019-03-31T16:06:50.948Z,16.50
2019-03-31T16:09:23.724Z,16.40
2019-03-31T16:11:54.134Z,16.30
2019-03-31T16:14:25.076Z,16.30
2019-03-31T16:16:55.186Z,16.20
2019-03-31T16:19:25.338Z,16.30
2019-03-31T16:21:55.441Z,16.20
2019-03-31T16:24:41.117Z,16.20
2019-03-31T16:27:11.290Z,16.20
2019-03-31T16:29:41.324Z,16.10
2019-03-31T16:32:11.442Z,16.10
2019-03-31T16:34:41.479Z,16.00
2019-03-31T16:37:11.509Z,16.00
2019-03-31T16:39:41.715Z,15.90
2019-03-31T16:42:11.919Z,15.90
2019-03-31T16:44:42.003Z,15.80
2019-03-31T16:47:13.062Z,15.70
2019-03-31T16:49:43.176Z,15.70
2019-03-31T16:52:14.528Z,15.80
2019-03-31T16:54:44.622Z,15.70
2019-03-31T16:57:14.772Z,15.60
2019-03-31T16:59:44.811Z,15.60
2019-03-31T17:02:14.966Z,15.50
2019-03-31T17:04:45.065Z,15.40
2019-03-31T17:07:15.208Z,15.30
2019-03-31T17:09:51.314Z,15.30
2019-03-31T17:12:17.033Z,15.20
2019-03-31T17:14:47.208Z,15.20
2019-03-31T17:17:17.235Z,15.10
2019-03-31T17:19:47.300Z,15.00
2019-03-31T17:22:18.121Z,14.90
2019-03-31T17:24:48.252Z,14.80
2019-03-31T17:27:20.073Z,14.80
2019-03-31T17:29:50.229Z,14.70
2019-03-31T17:32:20.273Z,14.60
2019-03-31T17:34:50.303Z,14.50
2019-03-31T17:37:20.366Z,14.40
2019-03-31T17:39:50.532Z,14.30
2019-03-31T17:42:20.672Z,14.30
2019-03-31T17:44:53.589Z,14.10
2019-03-31T17:47:26.506Z,13.80
2019-03-31T17:49:56.589Z,13.60
2019-03-31T17:52:26.612Z,13.30
2019-03-31T17:54:57.805Z,13.00
2019-03-31T17:57:27.917Z,12.80
2019-03-31T17:59:58.013Z,12.60
2019-03-31T18:02:28.047Z,12.40
2019-03-31T18:04:58.136Z,12.30
2019-03-31T18:07:28.181Z,12.20
2019-03-31T18:09:58.253Z,12.10
2019-03-31T18:12:28.305Z,11.90
2019-03-31T18:14:58.462Z,11.80
2019-03-31T18:17:28.496Z,11.70
2019-03-31T18:19:58.561Z,11.60
2019-03-31T18:22:28.624Z,11.50
2019-03-31T18:24:58.632Z,11.40
2019-03-31T18:27:28.774Z,11.40
2019-03-31T18:29:58.834Z,11.30
2019-03-31T18:32:28.930Z,11.30
2019-03-31T18:34:59.106Z,11.20
2019-03-31T18:37:29.313Z,11.10
2019-03-31T18:39:59.414Z,11.10
2019-03-31T18:42:29.528Z,11.00
2019-03-31T18:44:59.740Z,10.90
2019-03-31T18:47:29.946Z,10.80
2019-03-31T18:50:00.354Z,10.80
2019-03-31T18:52:30.563Z,10.70
2019-03-31T18:55:08.483Z,10.70
2019-03-31T18:57:45.860Z,10.60
2019-03-31T19:00:41.546Z,10.50
2019-03-31T19:03:24.867Z,10.50
2019-03-31T19:06:12.574Z,10.30
2019-03-31T19:08:51.308Z,10.30
2019-03-31T19:11:44.097Z,10.20
2019-03-31T19:14:32.233Z,10.10
2019-03-31T19:17:27.519Z,10.00
2019-03-31T19:20:19.505Z,9.90
2019-03-31T19:23:11.698Z,9.90
2019-03-31T19:26:00.546Z,10.00
2019-03-31T19:29:05.008Z,10.00
2019-03-31T19:31:51.962Z,9.80
2019-03-31T19:34:28.764Z,9.60
2019-03-31T19:37:08.182Z,9.40
2019-03-31T19:40:18.614Z,9.50
2019-03-31T19:43:10.759Z,9.50
2019-03-31T19:46:05.448Z,9.50
2019-03-31T19:49:11.668Z,9.40
2019-03-31T19:52:06.709Z,9.30
2019-03-31T19:54:55.894Z,9.30
2019-03-31T19:57:44.984Z,9.20
2019-03-31T20:00:49.615Z,9.10
2019-03-31T20:03:44.910Z,9.00
2019-03-31T20:06:35.333Z,9.10
2019-03-31T20:09:18.717Z,9.20
2019-03-31T20:12:19.812Z,9.10
2019-03-31T20:15:07.598Z,9.00
2019-03-31T20:17:44.395Z,9.10
2019-03-31T20:20:32.185Z,9.10
2019-03-31T20:23:25.287Z,9.20
2019-03-31T20:26:17.190Z,9.10
2019-03-31T20:28:57.845Z,9.00
2019-03-31T20:31:53.289Z,9.00
2019-03-31T20:34:49.996Z,8.90
2019-03-31T20:37:40.522Z,8.80
2019-03-31T20:40:40.244Z,8.60
2019-03-31T20:43:29.264Z,8.50
2019-03-31T20:46:04.376Z,8.50
2019-03-31T20:48:32.370Z,8.40
2019-03-31T20:51:09.546Z,8.30
2019-03-31T20:53:39.439Z,8.40
2019-03-31T20:56:09.616Z,8.50
2019-03-31T20:58:39.766Z,8.40
2019-03-31T21:01:10.332Z,8.40
2019-03-31T21:03:42.561Z,8.40
2019-03-31T21:06:12.646Z,8.40
2019-03-31T21:08:46.201Z,8.20
2019-03-31T21:11:16.287Z,8.20
2019-03-31T21:13:49.527Z,8.10
2019-03-31T21:16:21.405Z,8.10
2019-03-31T21:18:52.613Z,8.10
2019-03-31T21:21:23.625Z,8.10
2019-03-31T21:23:53.718Z,8.00
2019-03-31T21:26:25.237Z,8.00
2019-03-31T21:28:56.103Z,8.00
2019-03-31T21:31:27.203Z,8.00
2019-03-31T21:34:02.830Z,7.90
2019-03-31T21:36:34.106Z,7.90
2019-03-31T21:39:06.038Z,7.80
2019-03-31T21:41:37.171Z,7.80
2019-03-31T21:44:07.311Z,7.70
2019-03-31T21:46:40.368Z,7.70
2019-03-31T21:49:11.745Z,7.80
2019-03-31T21:51:43.106Z,7.80
2019-03-31T21:54:13.221Z,7.80
2019-03-31T21:56:43.249Z,7.80
2019-03-31T21:59:13.261Z,7.80
2019-03-31T22:01:43.346Z,7.80
2019-03-31T22:04:17.638Z,7.80
2019-03-31T22:06:47.694Z,7.70
2019-03-31T22:09:19.369Z,7.60
2019-03-31T22:11:51.430Z,7.70
2019-03-31T22:14:21.216Z,7.70
2019-03-31T22:16:51.233Z,7.70
2019-03-31T22:19:21.325Z,7.80
2019-03-31T22:21:52.517Z,7.70
2019-03-31T22:24:23.915Z,7.60
2019-03-31T22:26:58.333Z,7.50
2019-03-31T22:29:28.395Z,7.60
2019-03-31T22:31:58.566Z,7.50
2019-03-31T22:34:28.668Z,7.40
2019-03-31T22:36:58.690Z,7.40
2019-03-31T22:39:28.793Z,7.30
2019-03-31T22:41:58.813Z,7.30
2019-03-31T22:44:30.072Z,7.30
2019-03-31T22:47:00.088Z,7.30
2019-03-31T22:49:31.413Z,7.10
2019-03-31T22:52:01.582Z,7.00
2019-03-31T22:54:33.346Z,7.20
2019-03-31T22:57:03.430Z,7.50
2019-03-31T22:59:35.434Z,7.80
2019-03-31T23:02:06.822Z,8.10
2019-03-31T23:04:41.068Z,8.30
2019-03-31T23:07:11.556Z,8.40
2019-03-31T23:09:44.352Z,8.50
2019-03-31T23:12:17.939Z,8.60
2019-03-31T23:14:49.596Z,8.80
2019-03-31T23:17:19.677Z,9.00
2019-03-31T23:19:49.778Z,9.20
2019-03-31T23:22:19.929Z,9.30
2019-03-31T23:24:50.064Z,9.40
2019-03-31T23:27:20.071Z,9.50
2019-03-31T23:29:53.334Z,9.40
2019-03-31T23:32:23.405Z,9.40
2019-03-31T23:34:56.263Z,9.40
2019-03-31T23:37:26.375Z,9.40
2019-03-31T23:39:56.509Z,9.30
2019-03-31T23:42:27.829Z,9.40
2019-03-31T23:44:57.907Z,9.30
2019-03-31T23:47:29.090Z,9.40
2019-03-31T23:49:59.090Z,9.40
2019-03-31T23:52:29.111Z,9.40
2019-03-31T23:54:59.140Z,9.30
2019-03-31T23:57:41.910Z,9.30
